Time;durP1;ratioP1;P1;durP2;ratioP2;P2;SDS_P1;SDS_P2;PMS_P1;PMS_P2;Temp;Humidity;BMP_temperature;BMP_pressure;BME280_temperature;BME280_humidity;BME280_pressure;Samples;Min_cycle;Max_cycle;Signal;HPM_P1;HPM_P2
2022/08/07 00:02:21;;;;;;;11.55;10.55;;;;;;;17.72;100.00;97026.38;5042670;28;20191;-57
2022/08/07 00:04:47;;;;;;;11.15;10.25;;;;;;;17.71;100.00;97029.25;5040714;28;20637;-55
2022/08/07 00:07:14;;;;;;;12.38;11.32;;;;;;;17.70;100.00;97027.59;5041172;28;20640;-55
2022/08/07 00:09:41;;;;;;;11.25;10.32;;;;;;;17.68;100.00;97029.59;5041044;28;20229;-55
2022/08/07 00:12:08;;;;;;;11.52;10.60;;;;;;;17.66;100.00;97032.47;5041770;28;20297;-55
2022/08/07 00:14:34;;;;;;;11.23;10.32;;;;;;;17.58;100.00;97029.81;5041604;28;20294;-54
2022/08/07 00:17:02;;;;;;;11.43;10.52;;;;;;;17.48;100.00;97021.16;5041806;28;20633;-55
2022/08/07 00:19:31;;;;;;;11.38;10.38;;;;;;;17.43;100.00;97008.31;5041827;28;20203;-55
2022/08/07 00:21:57;;;;;;;11.43;10.50;;;;;;;17.46;100.00;97014.34;5041762;28;20214;-55
2022/08/07 00:24:24;;;;;;;11.13;10.13;;;;;;;17.38;100.00;97012.56;5042011;28;20286;-54
2022/08/07 00:26:51;;;;;;;11.27;10.32;;;;;;;17.35;100.00;97008.41;5040817;28;20716;-55
2022/08/07 00:29:21;;;;;;;11.75;10.77;;;;;;;17.37;100.00;97003.69;5041338;28;20203;-55
2022/08/07 00:31:47;;;;;;;11.02;10.13;;;;;;;17.28;100.00;96998.59;5041556;28;20338;-55
2022/08/07 00:34:14;;;;;;;10.95;10.15;;;;;;;17.24;100.00;96991.91;5042148;28;20572;-55
2022/08/07 00:36:43;;;;;;;12.05;10.98;;;;;;;17.19;100.00;96994.25;5041972;28;20212;-54
2022/08/07 00:39:10;;;;;;;11.40;10.50;;;;;;;17.19;100.00;96999.63;5041595;28;20191;-55
2022/08/07 00:41:37;;;;;;;11.65;10.68;;;;;;;17.12;100.00;96996.81;5041407;28;20203;-55
2022/08/07 00:44:03;;;;;;;11.65;10.73;;;;;;;17.09;100.00;96986.47;5043088;28;20302;-55
2022/08/07 00:46:31;;;;;;;10.63;9.93;;;;;;;17.06;100.00;96991.34;5041697;28;20284;-55
2022/08/07 00:49:00;;;;;;;11.27;10.38;;;;;;;17.05;100.00;96984.31;5041648;28;20249;-55
2022/08/07 00:51:27;;;;;;;11.32;10.43;;;;;;;17.03;100.00;96983.69;5042145;28;20571;-54
2022/08/07 00:53:55;;;;;;;10.60;9.73;;;;;;;16.98;100.00;96986.03;5041776;28;20679;-54
2022/08/07 00:56:22;;;;;;;9.95;9.15;;;;;;;17.01;100.00;96983.00;5041788;28;20244;-54
2022/08/07 00:58:49;;;;;;;10.50;9.60;;;;;;;16.99;100.00;96982.34;5041928;28;20287;-54
2022/08/07 01:01:16;;;;;;;10.07;9.27;;;;;;;17.01;100.00;96972.31;5041549;28;20519;-54
2022/08/07 01:03:42;;;;;;;9.70;8.90;;;;;;;17.03;100.00;96975.66;5041857;28;20290;-54
2022/08/07 01:06:09;;;;;;;10.67;9.70;;;;;;;16.99;100.00;96972.50;5041402;28;20196;-55
2022/08/07 01:08:36;;;;;;;10.38;9.48;;;;;;;16.95;100.00;96971.19;5045862;28;20291;-54
2022/08/07 01:11:04;;;;;;;9.10;8.50;;;;;;;16.92;100.00;96971.53;5045373;28;20223;-54
2022/08/07 01:13:31;;;;;;;9.75;8.95;;;;;;;16.87;100.00;96963.19;5045852;28;20309;-54
2022/08/07 01:15:59;;;;;;;9.18;8.48;;;;;;;16.85;100.00;96957.22;5045178;28;20627;-54
2022/08/07 01:18:27;;;;;;;9.87;8.97;;;;;;;16.84;100.00;96958.22;5045705;28;20291;-55
2022/08/07 01:21:04;;;;;;;10.60;9.70;;;;;;;16.81;100.00;96962.06;5051411;28;20208;-55
2022/08/07 01:23:32;;;;;;;9.52;8.82;;;;;;;16.77;100.00;96960.75;5073626;28;20196;-54
2022/08/07 01:25:59;;;;;;;9.98;9.07;;;;;;;16.72;100.00;96956.94;5072794;28;20183;-55
2022/08/07 01:28:26;;;;;;;10.00;9.07;;;;;;;16.74;100.00;96955.75;5050620;28;20232;-55
2022/08/07 01:30:54;;;;;;;9.48;8.68;;;;;;;16.75;100.00;96957.44;5045857;28;20294;-54
2022/08/07 01:33:20;;;;;;;9.47;8.57;;;;;;;16.75;100.00;96957.44;5045265;28;20233;-55
2022/08/07 01:35:48;;;;;;;9.80;9.00;;;;;;;16.76;100.00;96956.41;5044905;28;20214;-55
2022/08/07 01:38:16;;;;;;;9.20;8.50;;;;;;;16.70;100.00;96954.44;5045306;28;20298;-55
2022/08/07 01:40:45;;;;;;;9.63;8.82;;;;;;;16.69;100.00;96946.59;5045347;28;20200;-55
2022/08/07 01:43:12;;;;;;;9.60;8.73;;;;;;;16.72;100.00;96949.75;5045555;28;20291;-55
2022/08/07 01:45:39;;;;;;;9.57;8.77;;;;;;;16.67;100.00;96938.78;5044739;28;20290;-54
2022/08/07 01:48:06;;;;;;;10.40;9.23;;;;;;;16.74;100.00;96947.75;5044656;28;20199;-54
2022/08/07 01:50:36;;;;;;;9.17;8.57;;;;;;;16.69;100.00;96947.41;5045177;28;20282;-54
2022/08/07 01:53:04;;;;;;;9.57;8.67;;;;;;;16.65;100.00;96945.31;5044972;28;20303;-55
2022/08/07 01:55:36;;;;;;;9.88;9.07;;;;;;;16.58;100.00;96945.13;5045774;28;20290;-55
2022/08/07 01:58:07;;;;;;;10.00;9.13;;;;;;;16.61;100.00;96955.50;5045346;28;20288;-55
2022/08/07 02:00:35;;;;;;;9.70;8.90;;;;;;;16.50;100.00;96946.97;5045036;28;20204;-55
2022/08/07 02:03:07;;;;;;;9.98;9.07;;;;;;;16.54;100.00;96949.16;5045075;28;20298;-55
2022/08/07 02:05:37;;;;;;;9.57;8.75;;;;;;;16.47;100.00;96948.16;5045908;28;20589;-55
2022/08/07 02:08:09;;;;;;;9.63;8.93;;;;;;;16.52;100.00;96953.81;5044334;28;20228;-55
2022/08/07 02:10:37;;;;;;;9.60;8.70;;;;;;;16.48;100.00;96952.47;5044969;28;20275;-55
2022/08/07 02:13:05;;;;;;;10.27;9.47;;;;;;;16.53;100.00;96950.13;5044011;28;20339;-54
2022/08/07 02:15:32;;;;;;;9.63;8.80;;;;;;;16.49;100.00;96961.31;5045096;28;20206;-54
2022/08/07 02:17:59;;;;;;;10.03;9.13;;;;;;;16.49;100.00;96956.81;5043920;28;20203;-53
2022/08/07 02:20:27;;;;;;;9.77;8.97;;;;;;;16.47;100.00;96953.50;5044709;28;20211;-54
2022/08/07 02:22:57;;;;;;;9.30;8.60;;;;;;;16.43;100.00;96958.34;5044542;28;20203;-55
2022/08/07 02:25:24;;;;;;;9.43;8.73;;;;;;;16.43;100.00;96966.38;5044388;28;20235;-54
2022/08/07 02:27:52;;;;;;;10.70;9.80;;;;;;;16.37;100.00;96964.34;5044713;28;20286;-54
2022/08/07 02:30:19;;;;;;;9.30;8.50;;;;;;;16.42;100.00;96961.19;5043850;28;20290;-54
2022/08/07 02:32:47;;;;;;;9.70;8.90;;;;;;;16.40;100.00;96955.19;5044676;28;20322;-55
2022/08/07 02:35:17;;;;;;;10.37;9.47;;;;;;;16.39;100.00;96958.88;5044677;28;20307;-55
2022/08/07 02:37:45;;;;;;;10.73;9.63;;;;;;;16.38;100.00;96949.19;5044422;28;20282;-55
2022/08/07 02:40:13;;;;;;;10.23;9.43;;;;;;;16.36;100.00;96948.53;5044130;28;20746;-54
2022/08/07 02:42:39;;;;;;;10.33;9.50;;;;;;;16.35;100.00;96954.88;5044359;28;20195;-54
2022/08/07 02:45:12;;;;;;;10.07;9.37;;;;;;;16.36;100.00;96945.88;5044165;28;20212;-55
2022/08/07 02:47:38;;;;;;;9.83;9.03;;;;;;;16.40;100.00;96944.53;5042689;28;20324;-55
2022/08/07 02:50:06;;;;;;;9.67;8.77;;;;;;;16.47;100.00;96942.84;5043571;28;20641;-56
2022/08/07 02:52:36;;;;;;;9.60;8.90;;;;;;;16.44;100.00;96935.13;5044885;28;20291;-54
2022/08/07 02:55:06;;;;;;;10.30;9.47;;;;;;;16.44;100.00;96933.31;5043358;28;20606;-54
2022/08/07 02:57:34;;;;;;;10.97;9.97;;;;;;;16.40;100.00;96936.50;5044148;28;20214;-55
2022/08/07 03:00:01;;;;;;;9.30;8.60;;;;;;;16.39;100.00;96929.50;5044354;28;20245;-54
2022/08/07 03:02:29;;;;;;;10.87;9.30;;;;;;;16.46;100.00;96929.63;5044363;28;20196;-54
2022/08/07 03:04:56;;;;;;;10.00;9.07;;;;;;;16.50;100.00;96931.81;5043717;28;20286;-55
2022/08/07 03:07:23;;;;;;;9.23;8.50;;;;;;;16.57;100.00;96930.13;5043680;28;20290;-54
2022/08/07 03:09:50;;;;;;;10.00;9.30;;;;;;;16.61;100.00;96931.47;5043211;28;20599;-54
2022/08/07 03:12:17;;;;;;;9.60;8.80;;;;;;;16.68;100.00;96924.41;5043161;28;20282;-55
2022/08/07 03:14:44;;;;;;;10.47;9.60;;;;;;;16.72;100.00;96924.91;5042087;28;20223;-54
2022/08/07 03:17:11;;;;;;;10.35;9.55;;;;;;;16.75;100.00;96932.56;5043269;28;20287;-55
2022/08/07 03:19:40;;;;;;;10.15;9.35;;;;;;;16.80;100.00;96932.84;5043911;28;20299;-54
2022/08/07 03:22:07;;;;;;;9.13;8.48;;;;;;;16.87;100.00;96933.81;5044357;28;20303;-54
2022/08/07 03:24:34;;;;;;;10.10;9.30;;;;;;;16.94;100.00;96926.75;5044410;28;20705;-55
2022/08/07 03:27:03;;;;;;;9.45;8.75;;;;;;;16.96;100.00;96927.44;5049719;28;20207;-55
2022/08/07 03:29:33;;;;;;;9.38;8.65;;;;;;;17.04;100.00;96934.59;5048045;28;20278;-55
2022/08/07 03:32:01;;;;;;;9.90;9.07;;;;;;;17.08;100.00;96934.03;5062694;28;20180;-55
2022/08/07 03:34:28;;;;;;;10.35;9.65;;;;;;;17.07;99.54;96932.38;5073927;28;20211;-54
2022/08/07 03:36:58;;;;;;;9.07;8.37;;;;;;;17.14;100.00;96929.84;5065416;28;20226;-55
2022/08/07 03:39:26;;;;;;;10.77;9.90;;;;;;;17.31;98.38;96931.38;5050143;28;20601;-54
2022/08/07 03:41:52;;;;;;;10.23;9.43;;;;;;;17.21;98.02;96925.44;5046894;28;20254;-55
2022/08/07 03:44:19;;;;;;;9.47;8.77;;;;;;;17.19;100.00;96930.97;5046916;28;20246;-54
2022/08/07 03:46:46;;;;;;;9.65;8.75;;;;;;;17.20;100.00;96931.78;5044868;28;20605;-54
2022/08/07 03:49:13;;;;;;;9.85;9.05;;;;;;;17.25;99.61;96930.25;5043624;28;20318;-53
2022/08/07 03:51:39;;;;;;;9.35;8.68;;;;;;;17.16;100.00;96925.13;5042913;28;20278;-55
2022/08/07 03:54:07;;;;;;;8.70;8.00;;;;;;;17.19;100.00;96935.47;5043057;28;20318;-55
2022/08/07 03:56:35;;;;;;;9.67;8.97;;;;;;;17.20;100.00;96935.31;5043724;28;20291;-54
2022/08/07 03:59:03;;;;;;;10.30;9.40;;;;;;;17.24;100.00;96935.78;5045118;28;20204;-54
2022/08/07 04:01:30;;;;;;;9.93;9.17;;;;;;;17.24;100.00;96936.63;5047138;28;20227;-54
2022/08/07 04:03:56;;;;;;;10.38;9.57;;;;;;;17.28;98.19;96942.44;5057985;28;20996;-54
2022/08/07 04:06:23;;;;;;;10.10;9.23;;;;;;;17.23;100.00;96939.47;5068369;28;20195;-54
2022/08/07 04:08:50;;;;;;;9.32;8.63;;;;;;;17.24;100.00;96941.13;5071180;28;20210;-55
2022/08/07 04:11:18;;;;;;;9.43;8.63;;;;;;;17.25;100.00;96927.56;5069842;28;20636;-54
2022/08/07 04:13:47;;;;;;;9.63;8.73;;;;;;;17.27;99.04;96925.56;5073481;28;20207;-55
2022/08/07 04:16:14;;;;;;;10.70;9.90;;;;;;;17.35;98.00;96933.53;5063127;28;20204;-54
2022/08/07 04:18:40;;;;;;;10.68;9.82;;;;;;;17.37;96.76;96936.03;5068153;28;20167;-54
2022/08/07 04:21:07;;;;;;;10.17;9.37;;;;;;;17.33;99.42;96940.06;5069344;28;20176;-55
2022/08/07 04:23:34;;;;;;;10.00;9.30;;;;;;;17.32;99.14;96949.91;5070393;28;20179;-55
2022/08/07 04:26:01;;;;;;;9.88;9.18;;;;;;;17.28;99.03;96948.63;5060605;28;20191;-54
2022/08/07 04:28:29;;;;;;;10.50;9.65;;;;;;;17.29;98.05;96938.75;5041874;28;20226;-54
2022/08/07 04:30:55;;;;;;;9.80;9.00;;;;;;;17.30;98.89;96949.25;5041680;28;20305;-55
2022/08/07 04:33:23;;;;;;;9.48;8.77;;;;;;;17.37;98.92;96949.38;5041884;28;20225;-54
2022/08/07 04:35:51;;;;;;;10.10;9.23;;;;;;;17.41;98.58;96956.03;5042245;28;20237;-54
2022/08/07 04:38:17;;;;;;;10.00;9.23;;;;;;;17.39;99.67;96963.44;5042208;28;20238;-54
2022/08/07 04:40:45;;;;;;;10.70;9.87;;;;;;;17.34;98.15;96960.44;5041368;28;20238;-54
2022/08/07 04:43:12;;;;;;;10.73;9.73;;;;;;;17.38;97.95;96964.44;5041719;28;20203;-55
2022/08/07 04:45:46;;;;;;;9.02;8.25;;;;;;;17.41;99.79;96964.06;5041113;28;20294;-54
2022/08/07 04:48:20;;;;;;;10.43;9.68;;;;;;;17.43;98.76;96957.53;5042536;28;20254;-55
2022/08/07 04:50:55;;;;;;;11.40;10.50;;;;;;;17.41;97.47;96961.41;5042166;28;20302;-54
2022/08/07 04:53:27;;;;;;;10.32;9.63;;;;;;;17.45;98.55;96961.88;5042586;28;20350;-54
2022/08/07 04:55:58;;;;;;;10.60;9.70;;;;;;;17.42;100.00;96950.53;5042612;28;20214;-55
2022/08/07 04:58:32;;;;;;;10.77;9.77;;;;;;;17.48;99.66;96959.66;5042164;28;20278;-54
2022/08/07 05:01:05;;;;;;;9.80;9.00;;;;;;;17.50;100.00;96965.66;5041663;28;20303;-53
2022/08/07 05:03:39;;;;;;;10.18;9.48;;;;;;;17.52;100.00;96966.34;5041469;28;20228;-54
2022/08/07 05:06:08;;;;;;;11.57;10.55;;;;;;;17.55;99.90;96968.66;5041833;28;20231;-53
2022/08/07 05:08:40;;;;;;;10.53;9.53;;;;;;;17.53;100.00;96965.34;5041961;28;20310;-54
2022/08/07 05:11:12;;;;;;;12.17;11.17;;;;;;;17.54;97.89;96966.97;5041107;28;20188;-55
2022/08/07 05:13:45;;;;;;;11.52;10.57;;;;;;;17.59;98.57;96961.13;5042611;28;20317;-55
2022/08/07 05:16:14;;;;;;;10.55;9.75;;;;;;;17.61;98.97;96969.78;5042383;28;20264;-55
2022/08/07 05:18:56;;;;;;;11.02;10.13;;;;;;;17.63;100.00;96968.63;5041127;28;20204;-55
2022/08/07 05:21:26;;;;;;;12.40;11.33;;;;;;;17.61;98.40;96965.28;5042324;28;20289;-53
2022/08/07 05:23:56;;;;;;;12.32;11.32;;;;;;;17.59;97.84;96974.50;5041500;28;20192;-54
2022/08/07 05:26:25;;;;;;;12.70;11.65;;;;;;;17.59;98.20;96972.66;5042472;28;20278;-55
2022/08/07 05:28:52;;;;;;;11.55;10.65;;;;;;;17.65;98.30;96974.63;5041830;28;20719;-54
2022/08/07 05:31:23;;;;;;;11.65;10.75;;;;;;;17.69;98.45;96967.91;5042248;28;20195;-55
2022/08/07 05:33:51;;;;;;;12.23;11.23;;;;;;;17.67;97.65;96977.97;5042282;28;20528;-55
2022/08/07 05:36:18;;;;;;;12.90;11.90;;;;;;;17.65;97.63;96976.44;5041647;28;20291;-55
2022/08/07 05:38:46;;;;;;;11.93;11.02;;;;;;;17.71;100.00;96976.56;5062571;28;20215;-54
2022/08/07 05:41:12;;;;;;;12.43;11.40;;;;;;;17.73;99.37;96974.56;5064688;28;21208;-55
2022/08/07 05:43:40;;;;;;;13.07;11.98;;;;;;;17.73;97.88;96969.22;5057339;28;20607;-56
2022/08/07 05:46:07;;;;;;;12.45;11.27;;;;;;;17.73;97.70;96973.72;5043710;28;20334;-55
2022/08/07 05:48:35;;;;;;;12.80;11.65;;;;;;;17.71;96.58;96976.56;5041899;28;20336;-55
2022/08/07 05:51:02;;;;;;;12.93;11.93;;;;;;;17.69;97.49;96973.25;5041913;28;20239;-54
2022/08/07 05:53:29;;;;;;;11.43;10.40;;;;;;;17.74;98.67;96981.59;5042864;28;20333;-55
2022/08/07 05:55:57;;;;;;;12.23;11.18;;;;;;;17.71;98.00;96981.91;5044859;28;20203;-54
2022/08/07 05:58:25;;;;;;;12.13;11.13;;;;;;;17.75;98.55;96977.88;5045495;28;20227;-54
2022/08/07 06:00:53;;;;;;;10.82;10.02;;;;;;;17.83;99.40;96979.66;5044742;28;20290;-56
2022/08/07 06:03:20;;;;;;;12.80;11.70;;;;;;;17.84;98.92;96979.50;5044500;28;20287;-55
2022/08/07 06:05:48;;;;;;;12.05;11.02;;;;;;;17.84;98.62;96987.50;5044405;28;20278;-54
2022/08/07 06:08:16;;;;;;;12.85;11.70;;;;;;;17.89;97.75;96986.94;5044303;28;20204;-55
2022/08/07 06:10:43;;;;;;;12.70;11.70;;;;;;;17.88;98.65;96988.00;5044808;28;20294;-56
2022/08/07 06:13:10;;;;;;;10.52;9.73;;;;;;;17.95;98.64;96988.94;5044305;28;20278;-55
2022/08/07 06:15:37;;;;;;;13.55;12.45;;;;;;;17.95;97.24;96993.44;5044862;28;20740;-54
2022/08/07 06:18:04;;;;;;;13.05;11.77;;;;;;;17.96;99.52;96993.25;5044347;28;20302;-54
2022/08/07 06:20:31;;;;;;;12.82;11.60;;;;;;;18.00;99.22;96991.88;5044365;28;20287;-55
2022/08/07 06:22:59;;;;;;;12.40;11.40;;;;;;;18.01;98.06;96992.72;5044949;28;20663;-53
2022/08/07 06:25:26;;;;;;;12.73;11.75;;;;;;;18.01;97.37;96993.56;5045439;28;20295;-54
2022/08/07 06:27:52;;;;;;;12.40;11.35;;;;;;;17.99;98.98;96989.41;5046356;28;20336;-54
2022/08/07 06:30:19;;;;;;;12.32;11.43;;;;;;;18.02;98.93;96987.19;5043897;28;20654;-55
2022/08/07 06:32:45;;;;;;;11.43;10.38;;;;;;;18.05;99.10;96994.03;5045277;28;20321;-54
2022/08/07 06:35:12;;;;;;;12.68;11.68;;;;;;;18.00;98.74;96985.69;5044633;28;20219;-55
2022/08/07 06:37:39;;;;;;;12.07;11.18;;;;;;;18.01;98.87;96990.03;5044389;28;20585;-54
2022/08/07 06:40:08;;;;;;;12.02;11.02;;;;;;;18.03;98.96;96985.34;5043376;28;20207;-54
2022/08/07 06:42:36;;;;;;;11.50;10.70;;;;;;;18.05;100.00;96992.19;5044076;28;20641;-53
2022/08/07 06:45:05;;;;;;;12.98;11.95;;;;;;;17.95;99.07;96988.94;5044213;28;20643;-54
2022/08/07 06:47:31;;;;;;;12.20;11.20;;;;;;;18.02;99.85;96991.72;5044411;28;20648;-54
2022/08/07 06:49:58;;;;;;;12.13;11.20;;;;;;;18.02;100.00;96987.19;5043744;28;20261;-55
2022/08/07 06:52:28;;;;;;;11.98;10.98;;;;;;;18.05;100.00;96991.34;5043954;28;20225;-55
2022/08/07 06:54:55;;;;;;;12.73;11.73;;;;;;;17.98;99.32;96987.72;5044793;28;20223;-57
2022/08/07 06:57:24;;;;;;;11.68;10.68;;;;;;;18.01;100.00;96988.19;5044205;28;20204;-57
2022/08/07 06:59:51;;;;;;;11.57;10.57;;;;;;;17.99;100.00;96984.06;5043840;28;20217;-55
2022/08/07 07:02:20;;;;;;;12.63;11.63;;;;;;;18.04;99.61;96987.00;5043894;28;20623;-58
2022/08/07 07:04:47;;;;;;;11.80;10.80;;;;;;;18.02;99.66;96984.53;5042303;28;20290;-58
2022/08/07 07:07:14;;;;;;;11.35;10.45;;;;;;;17.98;100.00;96982.38;5043778;28;20545;-54
2022/08/07 07:09:45;;;;;;;11.57;10.52;;;;;;;18.05;99.77;96986.00;5044548;28;20207;-54
2022/08/07 07:12:24;;;;;;;11.48;10.57;;;;;;;18.02;99.15;96981.00;5043752;28;20283;-55
2022/08/07 07:14:56;;;;;;;12.15;10.95;;;;;;;18.01;99.10;96980.16;5043496;28;20311;-55
2022/08/07 07:17:28;;;;;;;11.73;10.82;;;;;;;18.00;98.56;96985.69;5043465;28;20282;-54
2022/08/07 07:19:58;;;;;;;11.43;10.50;;;;;;;18.08;96.93;96991.81;5043251;28;20628;-54
2022/08/07 07:22:25;;;;;;;12.02;11.00;;;;;;;18.04;96.77;96987.00;5042645;28;20207;-54
2022/08/07 07:24:52;;;;;;;11.70;10.60;;;;;;;18.00;97.46;96985.69;5044345;28;20207;-54
2022/08/07 07:27:20;;;;;;;11.18;10.18;;;;;;;18.03;96.93;96988.84;5045427;28;20303;-55
2022/08/07 07:29:49;;;;;;;10.75;9.95;;;;;;;18.05;96.93;96983.31;5044978;28;20290;-54
2022/08/07 07:32:18;;;;;;;9.20;8.60;;;;;;;18.10;97.77;96981.78;5044905;28;20345;-54
2022/08/07 07:34:47;;;;;;;11.75;10.82;;;;;;;18.11;97.95;96987.94;5044670;28;20242;-54
2022/08/07 07:37:15;;;;;;;11.65;10.65;;;;;;;18.13;96.87;96984.09;5044893;28;20285;-54
2022/08/07 07:39:42;;;;;;;10.75;9.93;;;;;;;18.13;98.84;96985.94;5043368;28;20310;-55
2022/08/07 07:42:10;;;;;;;10.65;9.75;;;;;;;18.16;98.27;96988.22;5043367;28;20246;-55
2022/08/07 07:44:39;;;;;;;11.30;10.35;;;;;;;18.22;97.12;96990.19;5047685;28;20260;-58
2022/08/07 07:47:06;;;;;;;12.50;11.35;;;;;;;18.16;96.04;96988.22;5072316;28;20180;-56
2022/08/07 07:49:35;;;;;;;11.10;10.30;;;;;;;18.13;96.55;96996.63;5071805;28;20230;-56
2022/08/07 07:52:03;;;;;;;11.20;10.20;;;;;;;18.11;96.55;96993.28;5067708;28;20196;-55
2022/08/07 07:54:30;;;;;;;10.45;9.65;;;;;;;18.18;96.78;96995.06;5043538;28;20292;-55
2022/08/07 07:56:57;;;;;;;11.73;10.73;;;;;;;18.19;96.13;96998.56;5043142;28;20648;-55
2022/08/07 07:59:25;;;;;;;11.90;11.00;;;;;;;18.11;95.50;96998.63;5042609;28;20231;-55
2022/08/07 08:01:52;;;;;;;10.88;9.98;;;;;;;18.15;96.01;97000.78;5043046;28;20206;-55
2022/08/07 08:04:19;;;;;;;11.38;10.15;;;;;;;18.14;96.66;96996.44;5042476;28;20645;-56
2022/08/07 08:06:48;;;;;;;10.93;10.02;;;;;;;18.08;97.41;96999.84;5043156;28;20302;-56
2022/08/07 08:09:16;;;;;;;11.25;10.35;;;;;;;18.19;95.35;96995.91;5043462;28;20290;-55
2022/08/07 08:11:43;;;;;;;10.55;9.70;;;;;;;18.16;95.75;96994.44;5042741;28;20299;-55
2022/08/07 08:14:10;;;;;;;10.68;9.77;;;;;;;18.11;97.16;96993.28;5041780;28;20630;-55
2022/08/07 08:16:40;;;;;;;12.00;10.90;;;;;;;18.09;96.21;96998.84;5042065;28;20612;-54
2022/08/07 08:19:08;;;;;;;11.70;10.63;;;;;;;18.16;95.16;97001.63;5042368;28;20294;-56
2022/08/07 08:27:08;;;;;;;11.35;10.45;;;;;;;18.23;94.63;96995.38;5043307;28;20284;-56
2022/08/07 08:29:40;;;;;;;11.45;10.45;;;;;;;18.28;93.58;96997.50;5042685;28;20261;-55
2022/08/07 08:32:09;;;;;;;10.63;9.65;;;;;;;18.37;93.90;96996.41;5043378;28;20262;-55
2022/08/07 08:34:37;;;;;;;10.88;10.00;;;;;;;18.35;94.82;97001.91;5044935;28;20310;-55
2022/08/07 08:37:05;;;;;;;10.75;9.85;;;;;;;18.40;95.31;97004.06;5042293;28;20290;-55
2022/08/07 08:39:34;;;;;;;10.10;9.30;;;;;;;18.45;95.52;97007.03;5042837;28;20293;-55
2022/08/07 08:42:04;;;;;;;10.10;9.15;;;;;;;18.45;94.87;97000.84;5043352;28;20270;-55
2022/08/07 08:44:36;;;;;;;12.27;11.18;;;;;;;18.40;93.88;97009.41;5042623;28;20231;-56
2022/08/07 08:47:07;;;;;;;11.00;10.00;;;;;;;18.44;93.93;97008.03;5042308;28;20234;-55
2022/08/07 08:49:42;;;;;;;10.95;10.00;;;;;;;18.44;93.54;97010.72;5041763;28;20298;-55
2022/08/07 08:52:13;;;;;;;11.35;10.25;;;;;;;18.45;93.85;97008.88;5041415;28;20278;-56
2022/08/07 08:54:47;;;;;;;10.07;9.27;;;;;;;18.55;92.43;97015.66;5042060;28;20315;-55
2022/08/07 08:57:20;;;;;;;11.02;10.10;;;;;;;18.50;92.58;97011.81;5042639;28;20287;-55
2022/08/07 08:59:51;;;;;;;10.32;9.52;;;;;;;18.55;92.90;97007.63;5041633;28;20283;-55
2022/08/07 09:02:24;;;;;;;9.40;8.50;;;;;;;18.65;93.58;97010.03;5043383;28;20231;-54
2022/08/07 09:04:59;;;;;;;9.90;9.05;;;;;;;18.68;92.57;97007.81;5041961;28;20256;-55
2022/08/07 09:07:33;;;;;;;10.38;9.57;;;;;;;18.74;92.72;97012.41;5041653;28;20270;-55
2022/08/07 09:10:06;;;;;;;10.95;9.98;;;;;;;18.79;90.91;97002.00;5042555;28;20268;-55
2022/08/07 09:12:49;;;;;;;10.32;9.43;;;;;;;18.84;91.92;97012.16;5041613;28;20227;-55
2022/08/07 09:15:31;;;;;;;10.07;9.25;;;;;;;18.84;91.32;97012.16;5041808;28;20294;-55
2022/08/07 09:18:11;;;;;;;9.75;8.88;;;;;;;18.88;91.22;97013.47;5041683;28;20294;-55
2022/08/07 09:20:54;;;;;;;8.27;7.57;;;;;;;18.94;90.79;97012.69;5042034;28;20238;-56
2022/08/07 09:23:32;;;;;;;8.60;7.90;;;;;;;18.99;91.01;97020.19;5042184;28;20290;-55
2022/08/07 09:26:13;;;;;;;8.20;7.50;;;;;;;19.05;91.20;97016.75;5041355;28;20286;-56
2022/08/07 09:28:40;;;;;;;8.00;7.40;;;;;;;19.12;90.79;97020.34;5044115;28;20279;-56
2022/08/07 09:31:11;;;;;;;9.18;8.38;;;;;;;19.14;90.99;97008.41;5045197;28;20213;-56
2022/08/07 09:33:48;;;;;;;8.63;7.88;;;;;;;19.22;91.49;97020.88;5045344;28;20295;-55
2022/08/07 09:36:20;;;;;;;8.57;7.93;;;;;;;19.22;90.46;97016.38;5044552;28;20299;-55
2022/08/07 09:38:51;;;;;;;9.57;8.65;;;;;;;19.35;88.28;97023.72;5045365;28;20207;-56
2022/08/07 09:41:28;;;;;;;8.90;8.20;;;;;;;19.29;88.79;97027.16;5045111;28;20279;-55
2022/08/07 09:44:01;;;;;;;8.50;7.90;;;;;;;19.29;89.08;97019.13;5045383;28;20199;-56
2022/08/07 09:46:42;;;;;;;8.65;7.85;;;;;;;19.31;88.60;97020.59;5044853;28;20200;-55
2022/08/07 09:49:21;;;;;;;8.73;8.02;;;;;;;19.34;88.04;97020.22;5044868;28;20246;-55
2022/08/07 09:51:55;;;;;;;9.05;8.30;;;;;;;19.35;87.65;97013.00;5045144;28;20622;-56
2022/08/07 09:54:37;;;;;;;7.50;7.00;;;;;;;19.41;87.99;97023.03;5055182;28;20227;-56
2022/08/07 09:57:28;;;;;;;7.93;7.30;;;;;;;19.41;88.84;97020.34;5053035;28;20286;-55
2022/08/07 10:00:08;;;;;;;8.00;7.30;;;;;;;19.45;88.42;97004.69;5045608;28;20210;-55
2022/08/07 10:02:57;;;;;;;7.65;7.05;;;;;;;19.56;87.60;97006.84;5045774;28;20208;-55
2022/08/07 10:05:37;;;;;;;7.60;7.00;;;;;;;19.53;87.76;97008.06;5046518;28;20282;-55
2022/08/07 10:08:13;;;;;;;7.40;6.72;;;;;;;19.61;87.46;97010.66;5046291;28;20293;-56
2022/08/07 10:10:45;;;;;;;7.68;7.10;;;;;;;19.49;88.28;97016.69;5047472;28;20206;-54
2022/08/07 10:13:27;;;;;;;7.78;7.15;;;;;;;19.55;87.71;97011.41;5046086;28;20291;-56
2022/08/07 10:16:02;;;;;;;7.45;6.85;;;;;;;19.64;87.32;97004.06;5046042;28;20239;-56
2022/08/07 10:18:39;;;;;;;7.18;6.55;;;;;;;19.67;87.08;97007.19;5046195;28;20203;-56
2022/08/07 10:21:16;;;;;;;7.90;7.10;;;;;;;19.71;86.46;97005.78;5045727;28;20282;-55
2022/08/07 10:23:59;;;;;;;7.78;7.18;;;;;;;19.74;86.58;96999.22;5045998;28;20249;-55
2022/08/07 10:26:36;;;;;;;7.70;7.00;;;;;;;19.78;86.36;97011.22;5045882;28;20196;-56
2022/08/07 10:29:16;;;;;;;8.23;7.53;;;;;;;19.76;85.99;97002.56;5045337;28;20199;-56
2022/08/07 10:31:52;;;;;;;7.60;6.72;;;;;;;19.76;85.45;97008.75;5044605;28;20203;-56
2022/08/07 10:34:36;;;;;;;7.30;6.07;;;;;;;19.80;84.98;97007.31;5044843;28;20277;-55
2022/08/07 10:37:13;;;;;;;6.65;6.25;;;;;;;19.87;87.30;97005.53;5044222;28;20207;-55
2022/08/07 10:39:52;;;;;;;6.72;6.22;;;;;;;19.94;86.02;97005.63;5048250;28;20200;-57
2022/08/07 10:42:35;;;;;;;6.63;6.13;;;;;;;19.98;85.86;97000.69;5045486;28;20298;-54
2022/08/07 10:45:16;;;;;;;6.93;6.43;;;;;;;19.95;86.60;97001.88;5045926;28;20208;-55
2022/08/07 10:47:47;;;;;;;5.88;5.47;;;;;;;20.07;85.79;97004.91;5044633;28;20636;-56
2022/08/07 10:50:19;;;;;;;5.85;5.45;;;;;;;20.14;85.81;97005.78;5044710;28;20290;-58
2022/08/07 10:52:53;;;;;;;6.45;5.95;;;;;;;20.16;85.05;97004.56;5045328;28;20592;-53
2022/08/07 10:55:21;;;;;;;6.53;5.90;;;;;;;20.20;84.90;97007.69;5044644;28;20216;-55
2022/08/07 10:57:57;;;;;;;6.57;6.00;;;;;;;20.20;84.52;97005.00;5044613;28;20204;-56
2022/08/07 11:00:30;;;;;;;5.95;5.40;;;;;;;20.31;83.86;96997.28;5044330;28;20218;-55
2022/08/07 11:03:02;;;;;;;6.35;5.88;;;;;;;20.19;82.83;96998.78;5044535;28;20196;-53
2022/08/07 11:05:33;;;;;;;6.55;5.97;;;;;;;20.23;83.99;97004.59;5045040;28;20286;-55
2022/08/07 11:08:09;;;;;;;6.22;5.72;;;;;;;20.34;83.85;96996.03;5043872;28;20904;-55
2022/08/07 11:10:41;;;;;;;5.88;5.47;;;;;;;20.29;83.87;97003.88;5044186;28;20195;-54
2022/08/07 11:13:13;;;;;;;6.07;5.40;;;;;;;20.36;83.45;96996.69;5046998;28;20298;-55
2022/08/07 11:15:42;;;;;;;6.65;6.05;;;;;;;20.34;82.51;97001.41;5049009;28;20208;-54
2022/08/07 11:18:15;;;;;;;5.50;5.10;;;;;;;20.45;83.48;96998.19;5046050;28;20331;-55
2022/08/07 11:20:48;;;;;;;5.75;5.35;;;;;;;20.55;84.08;96981.72;5043171;28;20211;-57
2022/08/07 11:23:21;;;;;;;5.53;5.13;;;;;;;20.64;82.64;96986.75;5048158;28;20206;-53
2022/08/07 11:25:51;;;;;;;13.00;7.65;;;;;;;20.71;83.10;96979.56;5049237;28;20216;-55
2022/08/07 11:28:25;;;;;;;8.23;6.68;;;;;;;20.76;82.43;96984.34;5050664;28;20226;-54
2022/08/07 11:30:58;;;;;;;6.47;5.90;;;;;;;20.89;79.36;96983.59;5043458;28;20288;-55
2022/08/07 11:33:29;;;;;;;5.85;5.30;;;;;;;20.75;80.12;96985.38;5045484;28;20231;-55
2022/08/07 11:36:06;;;;;;;5.50;5.10;;;;;;;20.92;79.64;96980.50;5043271;28;20299;-56
2022/08/07 11:38:39;;;;;;;5.93;4.90;;;;;;;21.00;80.18;96980.34;5043908;28;20204;-55
2022/08/07 11:41:09;;;;;;;5.65;5.28;;;;;;;20.99;79.43;96967.91;5043232;28;20302;-55